Time;durP1;ratioP1;P1;durP2;ratioP2;P2;SDS_P1;SDS_P2;PMS_P1;PMS_P2;Temp;Humidity;BMP_temperature;BMP_pressure;BME280_temperature;BME280_humidity;BME280_pressure;Samples;Min_cycle;Max_cycle;Signal;HPM_P1;HPM_P2
2021/03/02 00:01:54;;;;;;;31.67;16.90;;;;;;;5.92;57.47;101460.78;5053606;28;20052;-87
2021/03/02 00:04:22;;;;;;;35.13;18.70;;;;;;;5.91;57.41;101459.06;5047427;28;20068;-87
2021/03/02 00:06:52;;;;;;;32.45;17.83;;;;;;;5.89;58.28;101456.44;5026333;28;20427;-87
2021/03/02 00:09:19;;;;;;;32.90;17.52;;;;;;;5.89;57.28;101455.56;5016218;28;20132;-87
2021/03/02 00:11:47;;;;;;;32.92;18.35;;;;;;;5.86;57.68;101454.75;5016037;28;20053;-87
2021/03/02 00:14:13;;;;;;;33.50;18.27;;;;;;;5.86;57.51;101457.34;5045655;28;20059;-87
2021/03/02 00:16:43;;;;;;;34.95;18.38;;;;;;;5.85;57.88;101452.13;5053625;28;20495;-87
2021/03/02 00:19:14;;;;;;;31.65;17.60;;;;;;;5.82;57.88;101454.75;5035565;28;20053;-87
2021/03/02 00:21:48;;;;;;;36.60;19.10;;;;;;;5.80;58.23;101454.78;5036009;28;20084;-87
2021/03/02 00:24:18;;;;;;;;;;;;;;;5.80;57.62;101453.94;5053468;28;20045;-87
2021/03/02 00:26:49;;;;;;;31.23;16.50;;;;;;;5.77;57.44;101451.34;5035548;28;19921;-86
2021/03/02 00:29:17;;;;;;;34.15;18.08;;;;;;;5.72;57.21;101448.78;5053216;28;20049;-87
2021/03/02 00:31:44;;;;;;;33.53;17.15;;;;;;;5.67;57.12;101450.53;5047327;28;20049;-87
2021/03/02 00:34:11;;;;;;;34.50;17.70;;;;;;;5.64;57.27;101450.59;5015496;28;20053;-87
2021/03/02 00:36:37;;;;;;;37.63;18.08;;;;;;;5.59;57.39;101446.28;5033190;28;20049;-87
2021/03/02 00:39:04;;;;;;;36.72;18.73;;;;;;;5.57;57.50;101448.03;5015677;28;20100;-87
2021/03/02 00:41:30;;;;;;;29.40;16.73;;;;;;;5.53;57.26;101443.69;5018873;28;20140;-87
2021/03/02 00:43:57;;;;;;;34.90;18.27;;;;;;;5.50;57.49;101443.75;5035495;28;20406;-87
2021/03/02 00:46:24;;;;;;;32.60;17.02;;;;;;;5.46;57.54;101448.13;5035586;28;20059;-87
2021/03/02 00:48:51;;;;;;;33.95;17.77;;;;;;;5.44;57.61;101449.00;5035373;28;20049;-87
2021/03/02 00:51:17;;;;;;;34.45;18.08;;;;;;;5.40;57.50;101444.69;5053770;28;20049;-87
2021/03/02 00:53:43;;;;;;;32.72;17.98;;;;;;;5.38;57.77;101447.31;5019380;28;20566;-87
2021/03/02 00:56:10;;;;;;;34.05;18.30;;;;;;;5.34;57.81;101451.69;5037110;28;20510;-87
2021/03/02 00:58:36;;;;;;;31.35;16.67;;;;;;;5.31;57.73;101454.31;5037568;28;20112;-87
2021/03/02 01:01:02;;;;;;;36.25;17.13;;;;;;;5.29;58.15;101450.88;5019816;28;20403;-86
2021/03/02 01:03:29;;;;;;;32.65;17.52;;;;;;;5.28;57.90;101448.28;5055840;28;20053;-86
2021/03/02 01:05:55;;;;;;;30.48;17.42;;;;;;;5.26;57.97;101448.28;5057034;28;20132;-86
2021/03/02 01:08:21;;;;;;;32.85;16.45;;;;;;;5.25;58.24;101441.31;5056784;28;20124;-86
2021/03/02 01:10:47;;;;;;;31.58;17.48;;;;;;;5.25;58.16;101443.06;5057150;28;20084;-86
2021/03/02 01:13:14;;;;;;;28.75;15.40;;;;;;;5.24;58.60;101439.59;5021895;28;20073;-86
2021/03/02 01:15:40;;;;;;;33.67;17.30;;;;;;;5.26;58.63;101432.63;5048468;28;20055;-87
2021/03/02 01:18:07;;;;;;;27.80;15.70;;;;;;;5.27;58.70;101434.34;5038719;28;20049;-87
2021/03/02 01:20:33;;;;;;;30.90;17.27;;;;;;;5.28;58.57;101435.22;5056591;28;20053;-87
2021/03/02 01:22:59;;;;;;;34.15;17.17;;;;;;;5.29;58.38;101440.44;5055861;28;20041;-87
2021/03/02 01:25:27;;;;;;;32.17;16.08;;;;;;;5.27;58.31;101439.56;5038606;28;20051;-87
2021/03/02 01:27:53;;;;;;;34.72;16.85;;;;;;;5.26;58.23;101437.84;5056420;28;20106;-86
2021/03/02 01:30:22;;;;;;;30.55;16.65;;;;;;;5.24;58.92;101430.91;5038706;28;20497;-87
2021/03/02 01:32:48;;;;;;;30.48;16.33;;;;;;;5.24;58.23;101429.16;5025581;28;20046;-87
2021/03/02 01:35:16;;;;;;;31.10;14.70;;;;;;;5.22;58.49;101428.28;5019244;28;20050;-87
2021/03/02 01:37:42;;;;;;;31.30;16.02;;;;;;;5.21;58.65;101424.78;5036608;28;20133;-87
2021/03/02 01:40:11;;;;;;;29.88;16.50;;;;;;;5.21;59.01;101426.56;5036847;28;20050;-87
2021/03/02 01:42:37;;;;;;;28.38;15.43;;;;;;;5.23;58.84;101424.78;5021115;28;20045;-86
2021/03/02 01:45:09;;;;;;;29.67;15.68;;;;;;;5.21;59.91;101424.78;5035998;28;20049;-87
2021/03/02 01:47:36;;;;;;;27.58;15.30;;;;;;;5.22;58.88;101418.72;5018434;28;20594;-87
2021/03/02 01:50:04;;;;;;;27.63;14.30;;;;;;;5.25;59.21;101424.78;5037156;28;20057;-87
2021/03/02 01:52:32;;;;;;;27.83;14.80;;;;;;;5.26;59.09;101414.34;5028562;28;20049;-87
2021/03/02 01:54:58;;;;;;;29.25;14.85;;;;;;;5.27;58.85;101416.06;5056143;28;20128;-87
2021/03/02 01:57:25;;;;;;;25.95;13.98;;;;;;;5.28;59.30;101416.94;5056157;28;20080;-87
2021/03/02 01:59:51;;;;;;;24.48;13.88;;;;;;;5.29;59.33;101403.88;5038166;28;20048;-86
2021/03/02 02:02:27;;;;;;;25.25;14.02;;;;;;;5.32;60.07;101413.44;5034927;28;20080;-86
2021/03/02 02:04:56;;;;;;;23.50;13.13;;;;;;;5.38;59.91;101407.28;5026713;28;20573;-86
2021/03/02 02:07:38;;;;;;;24.38;12.63;;;;;;;5.41;60.88;101397.66;5036087;28;20124;-86
2021/03/02 02:10:15;;;;;;;21.77;12.95;;;;;;;5.47;60.69;101402.81;5019135;28;20184;-86
2021/03/02 02:12:47;;;;;;;23.33;12.82;;;;;;;5.55;59.80;101402.78;5028529;28;20128;-86
2021/03/02 02:15:19;;;;;;;25.80;12.98;;;;;;;5.59;60.08;101398.38;5047953;28;20053;-87
2021/03/02 02:18:09;;;;;;;21.83;13.03;;;;;;;5.61;61.12;101397.47;5018104;28;20133;-87
2021/03/02 02:20:46;;;;;;;21.30;11.73;;;;;;;5.66;60.37;101396.56;5018725;28;20058;-86
2021/03/02 02:23:32;;;;;;;20.63;11.85;;;;;;;5.68;60.62;101390.44;5019069;28;20121;-86
2021/03/02 02:26:36;;;;;;;19.75;11.70;;;;;;;5.74;60.55;101392.13;5018069;28;20128;-86
2021/03/02 02:29:02;;;;;;;;;;;;;;;5.81;59.61;101388.59;5036041;28;20133;-86
2021/03/02 02:31:31;;;;;;;17.50;10.35;;;;;;;5.87;58.80;101390.28;5018153;28;19920;-86
2021/03/02 02:33:58;;;;;;;21.95;11.60;;;;;;;5.89;58.86;101392.84;5037371;28;20080;-87
2021/03/02 02:36:25;;;;;;;21.92;11.57;;;;;;;5.90;59.07;101395.44;5037868;28;20049;-86
2021/03/02 02:38:55;;;;;;;19.45;11.32;;;;;;;5.91;59.66;101391.94;5037435;28;20102;-86
2021/03/02 02:41:23;;;;;;;20.23;11.63;;;;;;;5.95;59.05;101392.78;5037391;28;20491;-86
2021/03/02 02:43:51;;;;;;;21.80;11.43;;;;;;;5.96;59.30;101389.28;5054212;28;20048;-87
2021/03/02 02:46:18;;;;;;;21.30;11.63;;;;;;;5.99;59.52;101386.66;5037609;28;20053;-87
2021/03/02 02:48:48;;;;;;;19.00;11.75;;;;;;;6.00;59.68;101384.03;5077032;22;20049;-85
2021/03/02 02:51:15;;;;;;;21.00;11.88;;;;;;;6.04;59.49;101386.63;4998638;28;20045;-85
2021/03/02 02:53:42;;;;;;;20.67;12.20;;;;;;;6.05;58.89;101383.97;5018005;28;20050;-85
2021/03/02 02:56:13;;;;;;;19.77;11.65;;;;;;;6.06;59.53;101379.63;4998131;28;20054;-85
2021/03/02 02:58:59;;;;;;;19.23;11.50;;;;;;;6.06;60.56;101388.31;4998232;28;20073;-84
2021/03/02 03:01:30;;;;;;;19.67;11.85;;;;;;;6.09;59.43;101385.69;5007965;28;20495;-84
2021/03/02 03:04:01;;;;;;;21.23;12.07;;;;;;;6.09;59.49;101385.69;5034960;28;20049;-85
2021/03/02 03:06:30;;;;;;;22.27;12.18;;;;;;;6.08;58.96;101383.97;5032322;28;20060;-85
2021/03/02 03:09:00;;;;;;;22.83;12.02;;;;;;;6.08;59.00;101385.69;5035368;28;20060;-84
2021/03/02 03:11:34;;;;;;;21.15;12.20;;;;;;;6.06;59.52;101385.72;5017654;28;20053;-85
2021/03/02 03:14:01;;;;;;;20.30;12.48;;;;;;;6.04;59.20;101384.88;5016837;28;20045;-84
2021/03/02 03:16:28;;;;;;;22.85;12.20;;;;;;;6.04;58.75;101382.25;5007319;28;20045;-84
2021/03/02 03:18:58;;;;;;;18.63;11.30;;;;;;;6.04;59.29;101386.63;4995434;28;20046;-84
2021/03/02 03:21:26;;;;;;;19.88;11.98;;;;;;;6.03;58.97;101391.00;4996047;28;20050;-84
2021/03/02 03:23:53;;;;;;;24.05;11.90;;;;;;;6.02;58.65;101389.22;4995561;28;20050;-84
2021/03/02 03:26:23;;;;;;;21.85;12.45;;;;;;;6.00;59.43;101389.25;4998244;28;20058;-84
2021/03/02 03:28:52;;;;;;;17.15;10.90;;;;;;;5.99;59.07;101397.09;5016638;28;20447;-84
2021/03/02 03:31:18;;;;;;;22.42;12.57;;;;;;;5.98;58.85;101388.38;5034873;28;20073;-85
2021/03/02 03:33:46;;;;;;;21.38;12.35;;;;;;;5.95;58.90;101398.88;5034141;28;20487;-83
2021/03/02 03:36:13;;;;;;;19.58;12.30;;;;;;;5.95;58.89;101403.25;5017181;28;20061;-84
2021/03/02 03:38:40;;;;;;;20.92;12.30;;;;;;;5.93;58.60;101405.00;5034709;28;20057;-84
2021/03/02 03:41:06;;;;;;;22.25;12.15;;;;;;;5.89;58.73;101400.69;5025060;28;20076;-85
2021/03/02 03:43:33;;;;;;;19.85;11.55;;;;;;;5.83;58.54;101399.03;4997025;28;20512;-84
2021/03/02 03:45:59;;;;;;;20.58;11.63;;;;;;;5.78;58.42;101399.06;5014200;28;20056;-84
2021/03/02 03:48:25;;;;;;;22.25;12.73;;;;;;;5.72;58.54;101402.59;5014443;28;20405;-84
2021/03/02 03:50:51;;;;;;;21.15;12.18;;;;;;;5.65;58.55;101405.28;4997370;28;20093;-84
2021/03/02 03:53:21;;;;;;;25.23;13.05;;;;;;;5.58;59.39;101401.88;5014276;28;20049;-84
2021/03/02 03:55:50;;;;;;;22.23;13.52;;;;;;;5.53;59.34;101407.13;5014424;28;20054;-84
2021/03/02 03:58:22;;;;;;;22.20;12.48;;;;;;;5.47;59.77;101405.44;5015574;28;20065;-85
2021/03/02 04:00:50;;;;;;;21.43;13.03;;;;;;;5.46;59.61;101408.09;4996390;28;20053;-85
2021/03/02 04:03:21;;;;;;;22.38;12.23;;;;;;;5.43;59.32;101402.88;5013226;28;20041;-85
2021/03/02 04:05:48;;;;;;;22.88;12.57;;;;;;;5.41;59.55;101408.13;5013957;28;20504;-84
2021/03/02 04:08:15;;;;;;;25.00;12.98;;;;;;;5.39;59.45;101411.63;4996757;28;20493;-85
2021/03/02 04:10:42;;;;;;;21.27;12.55;;;;;;;5.38;59.54;101405.53;5014354;28;20046;-84
2021/03/02 04:13:14;;;;;;;22.17;11.98;;;;;;;5.37;60.35;101410.75;4998013;28;20397;-85
2021/03/02 04:15:43;;;;;;;21.52;13.25;;;;;;;5.38;59.97;101408.13;5014082;28;20060;-85
2021/03/02 04:18:11;;;;;;;20.13;12.55;;;;;;;5.37;59.71;101409.03;5014362;28;20487;-85
2021/03/02 04:20:39;;;;;;;23.02;13.02;;;;;;;5.37;59.61;101397.69;5013830;28;20496;-85
2021/03/02 04:23:06;;;;;;;26.92;13.98;;;;;;;5.34;59.22;101401.22;5014106;28;20092;-85
2021/03/02 04:25:33;;;;;;;24.30;13.27;;;;;;;5.31;59.23;101404.72;4995675;28;20049;-85
2021/03/02 04:28:00;;;;;;;26.67;13.55;;;;;;;5.27;59.42;101399.53;5013640;28;20104;-85
2021/03/02 04:30:27;;;;;;;24.95;13.93;;;;;;;5.23;59.30;101409.13;5005099;28;20095;-85
2021/03/02 04:32:53;;;;;;;24.98;13.40;;;;;;;5.17;59.23;101410.06;5033671;28;20450;-85
2021/03/02 04:35:20;;;;;;;23.92;13.93;;;;;;;5.12;59.59;101404.00;5016230;28;20049;-85
2021/03/02 04:37:46;;;;;;;24.02;13.85;;;;;;;5.09;59.66;101402.28;5015828;28;20554;-85
2021/03/02 04:40:13;;;;;;;24.02;13.40;;;;;;;5.06;59.64;101402.31;5016153;28;20049;-84
2021/03/02 04:42:39;;;;;;;23.23;13.10;;;;;;;5.04;59.85;101404.06;5015622;28;20557;-85
2021/03/02 04:45:07;;;;;;;23.08;13.85;;;;;;;5.03;60.09;101402.34;5016492;28;20049;-85
2021/03/02 04:47:34;;;;;;;22.20;12.63;;;;;;;5.02;60.05;101403.22;5013457;28;20125;-85
2021/03/02 04:50:02;;;;;;;23.67;13.80;;;;;;;5.00;60.09;101402.34;5015957;28;20053;-84
2021/03/02 04:52:28;;;;;;;23.02;13.43;;;;;;;4.99;59.94;101402.34;5016188;28;20057;-85
2021/03/02 04:54:55;;;;;;;23.67;12.85;;;;;;;4.98;59.91;101408.44;5033527;28;20048;-84
2021/03/02 04:57:21;;;;;;;21.45;13.07;;;;;;;4.96;60.28;101403.25;5015955;28;20411;-85
2021/03/02 04:59:47;;;;;;;25.00;13.50;;;;;;;4.95;60.33;101404.13;5015882;28;20530;-86
2021/03/02 05:02:13;;;;;;;27.25;13.65;;;;;;;4.95;60.42;101404.13;5013433;28;20492;-86
2021/03/02 05:04:39;;;;;;;21.33;12.63;;;;;;;4.96;60.48;101398.03;5015416;28;20503;-86
2021/03/02 05:07:05;;;;;;;23.30;12.75;;;;;;;4.97;60.53;101402.34;5033665;28;20056;-86
2021/03/02 05:09:32;;;;;;;21.30;12.48;;;;;;;4.99;60.61;101400.63;5033476;28;20049;-86
2021/03/02 05:11:58;;;;;;;25.52;13.82;;;;;;;5.02;60.63;101405.81;5033543;28;20095;-86
2021/03/02 05:14:24;;;;;;;24.17;13.90;;;;;;;5.04;60.65;101395.34;5015805;28;20072;-86
2021/03/02 05:16:50;;;;;;;19.20;12.38;;;;;;;5.06;60.36;101397.09;5033350;28;20045;-86
2021/03/02 05:19:17;;;;;;;23.73;13.02;;;;;;;5.09;59.98;101396.22;4998548;28;20234;-85
2021/03/02 05:21:43;;;;;;;24.23;13.80;;;;;;;5.09;60.35;101391.84;5013909;28;20061;-86
2021/03/02 05:24:09;;;;;;;26.35;13.68;;;;;;;5.10;60.62;101392.72;4995696;28;20041;-85
2021/03/02 05:26:35;;;;;;;21.50;12.25;;;;;;;5.13;60.46;101391.81;4996090;28;20100;-86
2021/03/02 05:29:02;;;;;;;26.38;13.95;;;;;;;5.12;60.68;101393.56;4996164;28;20057;-86
2021/03/02 05:31:28;;;;;;;21.95;13.00;;;;;;;5.13;60.45;101391.81;5013549;28;20110;-86
2021/03/02 05:33:54;;;;;;;23.10;12.98;;;;;;;5.13;60.41;101386.59;5019240;28;20042;-86
2021/03/02 05:36:24;;;;;;;22.50;12.63;;;;;;;5.15;60.25;101387.44;5016641;28;20052;-86
2021/03/02 05:38:50;;;;;;;23.65;14.02;;;;;;;5.15;60.28;101397.88;5019058;28;20060;-86
2021/03/02 05:41:17;;;;;;;23.40;13.60;;;;;;;5.14;60.38;101389.19;5019270;28;20053;-86
2021/03/02 05:43:43;;;;;;;23.63;13.38;;;;;;;5.15;60.55;101392.66;5019145;28;20127;-85
2021/03/02 05:46:30;;;;;;;24.23;12.88;;;;;;;5.16;60.16;101389.19;5022101;28;20500;-86
2021/03/02 05:48:56;;;;;;;24.23;13.07;;;;;;;5.14;60.32;101388.31;5018849;28;20077;-86
2021/03/02 05:51:22;;;;;;;23.33;11.88;;;;;;;5.12;60.37;101390.94;5017437;28;20447;-86
2021/03/02 05:53:49;;;;;;;23.00;12.45;;;;;;;5.11;60.03;101389.22;5018754;28;20507;-86
2021/03/02 05:56:15;;;;;;;23.60;12.98;;;;;;;5.09;60.17;101388.38;5036786;28;20050;-85
2021/03/02 05:58:41;;;;;;;21.60;12.75;;;;;;;5.09;60.25;101388.38;5019065;28;20096;-86
2021/03/02 06:01:07;;;;;;;22.65;12.30;;;;;;;5.08;60.40;101384.00;5036634;28;20053;-86
2021/03/02 06:03:36;;;;;;;23.25;12.70;;;;;;;5.07;60.33;101387.50;5018887;28;20055;-85
2021/03/02 06:06:05;;;;;;;23.52;12.52;;;;;;;5.07;60.46;101387.50;5032315;28;20052;-85
2021/03/02 06:08:32;;;;;;;22.48;12.93;;;;;;;5.06;60.27;101384.03;5016467;28;20049;-86
2021/03/02 06:11:36;;;;;;;21.05;12.32;;;;;;;5.01;61.41;101385.81;4999201;28;20050;-86
2021/03/02 06:14:23;;;;;;;21.38;11.82;;;;;;;5.00;61.49;101391.91;4999053;28;20042;-86
2021/03/02 06:16:53;;;;;;;20.63;12.10;;;;;;;5.02;60.32;101387.56;4999597;28;20057;-86
2021/03/02 06:19:36;;;;;;;24.73;12.85;;;;;;;4.97;61.37;101388.47;5016344;28;20467;-86
2021/03/02 06:22:02;;;;;;;20.77;12.13;;;;;;;4.99;60.17;101390.19;5016746;28;20108;-85
2021/03/02 06:24:36;;;;;;;20.50;11.98;;;;;;;4.95;61.30;101388.47;5002034;28;20546;-85
2021/03/02 06:27:11;;;;;;;24.90;12.55;;;;;;;4.96;61.69;101390.19;5032999;28;20091;-85
2021/03/02 06:29:39;;;;;;;23.83;11.98;;;;;;;4.99;60.85;101389.31;5036054;28;20054;-84
2021/03/02 06:32:05;;;;;;;22.33;11.57;;;;;;;5.01;60.73;101392.78;5018398;28;20046;-85
2021/03/02 06:34:32;;;;;;;22.45;12.15;;;;;;;5.02;60.79;101387.56;5035846;28;20410;-85
2021/03/02 06:37:01;;;;;;;22.60;11.48;;;;;;;5.02;60.82;101395.38;5018009;28;20053;-86
2021/03/02 06:39:34;;;;;;;20.15;12.18;;;;;;;5.02;61.69;101398.00;5006439;28;20046;-86
2021/03/02 06:42:18;;;;;;;24.08;12.45;;;;;;;5.03;62.09;101394.50;4998549;28;20049;-86
2021/03/02 06:44:49;;;;;;;21.42;11.18;;;;;;;5.11;60.67;101390.94;4998420;28;20563;-86
2021/03/02 06:47:34;;;;;;;21.17;12.15;;;;;;;5.11;61.89;101404.00;5015712;28;20133;-86
2021/03/02 06:50:21;;;;;;;22.35;12.55;;;;;;;5.16;62.25;101412.69;4997939;28;20133;-86
2021/03/02 06:52:47;;;;;;;20.38;11.95;;;;;;;5.25;60.70;101407.38;4998557;28;20057;-85
2021/03/02 06:55:16;;;;;;;19.83;11.35;;;;;;;5.27;61.22;101399.53;4998980;28;20052;-86
2021/03/02 06:57:43;;;;;;;20.92;11.60;;;;;;;5.32;60.88;101401.25;4998413;28;20054;-86
2021/03/02 07:00:10;;;;;;;25.58;11.50;;;;;;;5.38;61.10;101402.91;5015686;28;20416;-86
2021/03/02 07:02:42;;;;;;;21.67;11.10;;;;;;;5.42;61.17;101412.44;4997879;28;20056;-86
2021/03/02 07:05:09;;;;;;;22.02;12.23;;;;;;;5.47;60.83;101400.22;5008910;28;20066;-86
2021/03/02 07:07:36;;;;;;;20.85;12.15;;;;;;;5.54;60.84;101405.41;5027608;28;20052;-85
2021/03/02 07:10:05;;;;;;;18.67;10.63;;;;;;;5.57;60.90;101408.00;5017900;28;20056;-86
2021/03/02 07:12:36;;;;;;;17.98;10.75;;;;;;;5.64;60.75;101416.63;5035029;28;20053;-86
2021/03/02 07:15:06;;;;;;;21.40;11.38;;;;;;;5.67;61.17;101414.84;5017705;28;20046;-85
2021/03/02 07:17:43;;;;;;;19.38;11.10;;;;;;;5.70;61.63;101416.56;5035147;28;20099;-85
2021/03/02 07:20:12;;;;;;;19.55;11.25;;;;;;;5.77;60.94;101417.38;5034907;28;20068;-85
2021/03/02 07:22:40;;;;;;;18.73;10.70;;;;;;;5.81;60.76;101417.34;5021142;28;20058;-85
2021/03/02 07:25:10;;;;;;;21.77;11.77;;;;;;;5.85;61.31;101413.81;5017456;28;20041;-85
2021/03/02 07:27:40;;;;;;;19.63;11.10;;;;;;;5.90;61.50;101413.75;4996369;28;20053;-86
2021/03/02 07:30:09;;;;;;;19.27;10.98;;;;;;;5.96;61.19;101411.06;4997629;28;20046;-86
2021/03/02 07:32:36;;;;;;;22.70;12.13;;;;;;;6.03;60.97;101411.91;5023300;28;20049;-86
2021/03/02 07:35:04;;;;;;;18.98;10.98;;;;;;;6.09;60.98;101406.59;5017209;28;20077;-86
2021/03/02 07:37:31;;;;;;;19.55;11.65;;;;;;;6.16;61.14;101409.16;5035056;28;20053;-86
2021/03/02 07:40:04;;;;;;;17.35;10.43;;;;;;;6.21;61.83;101412.56;5034624;28;20057;-86
2021/03/02 07:42:31;;;;;;;18.95;11.20;;;;;;;6.30;61.06;101419.44;5017003;28;20049;-85
2021/03/02 07:45:17;;;;;;;18.00;10.32;;;;;;;6.33;61.80;101409.81;5034254;28;20045;-85
2021/03/02 07:47:57;;;;;;;17.90;10.73;;;;;;;6.46;61.22;101417.47;4997618;28;20049;-85
2021/03/02 07:50:29;;;;;;;18.70;11.40;;;;;;;6.52;61.89;101417.41;5017436;28;20054;-86
2021/03/02 07:53:16;;;;;;;21.38;10.60;;;;;;;6.56;62.10;101421.72;5014558;28;20512;-85
2021/03/02 07:55:43;;;;;;;17.98;11.07;;;;;;;6.67;61.17;101423.31;4997251;28;20060;-85
2021/03/02 07:58:17;;;;;;;20.27;11.52;;;;;;;6.70;61.78;101425.91;5014491;28;20460;-85
2021/03/02 08:00:46;;;;;;;21.27;12.05;;;;;;;6.74;61.60;101412.78;5014535;28;20050;-85
2021/03/02 08:03:17;;;;;;;20.45;11.98;;;;;;;6.78;61.58;101414.41;5016108;28;20054;-85
2021/03/02 08:05:43;;;;;;;21.88;11.50;;;;;;;6.84;61.08;101413.47;5034018;28;20049;-86
2021/03/02 08:08:25;;;;;;;19.52;11.30;;;;;;;6.85;62.22;101417.84;5016624;28;20469;-85
2021/03/02 08:10:51;;;;;;;19.08;11.32;;;;;;;6.93;61.38;101420.34;5016693;28;20049;-85
2021/03/02 08:13:43;;;;;;;20.73;12.32;;;;;;;6.97;62.26;101418.53;5016571;28;20085;-85
2021/03/02 08:16:15;;;;;;;17.92;11.32;;;;;;;7.07;61.70;101424.50;5034250;28;20492;-85
2021/03/02 08:18:43;;;;;;;17.50;10.25;;;;;;;7.16;61.47;101426.97;5016398;28;20128;-85
2021/03/02 08:21:19;;;;;;;19.40;10.50;;;;;;;7.25;62.29;101425.97;5003267;28;20049;-84
2021/03/02 08:23:59;;;;;;;19.55;11.02;;;;;;;7.35;62.62;101432.78;4996279;28;20046;-83
2021/03/02 08:26:35;;;;;;;16.58;9.98;;;;;;;7.49;62.19;101432.56;4996823;28;20430;-84
2021/03/02 08:29:15;;;;;;;16.77;9.27;;;;;;;7.62;61.92;101432.34;5002209;28;20046;-84
2021/03/02 08:31:49;;;;;;;19.80;9.75;;;;;;;7.75;61.79;101431.25;5015189;28;20104;-84
2021/03/02 08:34:17;;;;;;;13.13;8.23;;;;;;;7.89;61.40;101433.59;5013253;28;20132;-84
2021/03/02 08:36:49;;;;;;;14.85;8.85;;;;;;;8.02;61.37;101443.84;5013880;28;20060;-84
2021/03/02 08:39:16;;;;;;;18.45;9.70;;;;;;;8.16;61.09;101433.09;5013486;28;20504;-84
2021/03/02 08:41:45;;;;;;;13.93;9.25;;;;;;;8.29;60.83;101436.31;4996368;28;20435;-84
2021/03/02 08:44:20;;;;;;;13.85;8.75;;;;;;;8.39;60.78;101437.88;5013377;28;20488;-84
2021/03/02 08:46:55;;;;;;;13.60;8.68;;;;;;;8.52;60.94;101432.38;5014493;28;20045;-84
2021/03/02 08:49:23;;;;;;;12.88;8.00;;;;;;;8.66;60.32;101432.97;5015526;28;20133;-83
2021/03/02 08:52:03;;;;;;;14.88;8.73;;;;;;;8.75;60.37;101433.66;5033342;28;20049;-84
2021/03/02 08:54:29;;;;;;;13.93;9.07;;;;;;;8.91;60.16;101436.81;5076714;22;20057;-84
2021/03/02 08:57:00;;;;;;;15.70;8.57;;;;;;;9.00;60.07;101439.22;5016820;28;20045;-84
2021/03/02 08:59:31;;;;;;;18.58;9.07;;;;;;;9.10;60.28;101442.50;5014228;28;20484;-84
2021/03/02 09:01:57;;;;;;;16.42;9.60;;;;;;;9.21;60.00;101437.84;5037056;28;20418;-84
2021/03/02 09:04:31;;;;;;;16.50;9.60;;;;;;;9.30;60.26;101438.53;5062263;28;20050;-84
2021/03/02 09:06:58;;;;;;;;;;;;;;;9.39;60.07;101433.91;5072207;28;20062;-86
2021/03/02 09:09:25;;;;;;;18.08;9.82;;;;;;;9.51;59.44;101437.13;5073067;28;20282;-86
2021/03/02 09:11:53;;;;;;;17.55;10.27;;;;;;;9.58;59.52;101440.47;5072779;28;20055;-86
2021/03/02 09:14:40;;;;;;;18.13;11.02;;;;;;;9.59;59.80;101444.81;5076302;28;20052;-86
2021/03/02 09:17:07;;;;;;;17.05;10.40;;;;;;;9.67;59.54;101439.34;5073870;28;20055;-86
2021/03/02 09:19:39;;;;;;;17.13;11.45;;;;;;;9.73;59.68;101445.34;5056975;28;20053;-85
2021/03/02 09:22:08;;;;;;;19.85;11.18;;;;;;;9.81;60.17;101441.63;5055615;28;20072;-86
2021/03/02 09:25:08;;;;;;;20.60;11.13;;;;;;;9.88;59.77;101440.56;5055628;28;20574;-85
2021/03/02 09:27:38;;;;;;;17.10;11.07;;;;;;;9.96;59.58;101443.84;5035277;28;20084;-85
2021/03/02 09:30:06;;;;;;;13.85;9.38;;;;;;;10.04;59.09;101446.25;5056538;28;20178;-86
2021/03/02 09:32:33;;;;;;;14.05;9.23;;;;;;;10.12;58.77;101446.03;5067204;28;20159;-85
2021/03/02 09:35:07;;;;;;;16.88;10.38;;;;;;;10.20;59.04;101445.84;5054652;28;20566;-86
2021/03/02 09:37:38;;;;;;;19.08;10.70;;;;;;;10.28;59.00;101442.06;5055272;28;20103;-86
2021/03/02 09:40:14;;;;;;;17.88;11.45;;;;;;;10.37;58.93;101446.22;5056060;28;20140;-86
2021/03/02 09:42:41;;;;;;;23.05;13.32;;;;;;;10.49;58.73;101445.03;5055935;28;20045;-86
2021/03/02 09:45:14;;;;;;;18.63;13.18;;;;;;;10.55;58.99;101442.22;5074446;28;20052;-86
2021/03/02 09:47:42;;;;;;;24.35;13.80;;;;;;;10.64;58.71;101437.56;5074832;28;20512;-85
2021/03/02 09:50:10;;;;;;;22.35;13.27;;;;;;;10.72;58.49;101437.38;5074920;28;20055;-86
2021/03/02 09:52:44;;;;;;;21.05;12.88;;;;;;;10.77;58.71;101444.19;5076002;28;20418;-85
2021/03/02 09:55:21;;;;;;;23.35;13.13;;;;;;;10.84;59.07;101438.75;5073405;28;20102;-87
2021/03/02 09:57:58;;;;;;;22.48;12.30;;;;;;;10.90;58.69;101438.56;5076439;28;20083;-86
2021/03/02 10:00:33;;;;;;;22.40;12.68;;;;;;;10.97;58.80;101434.81;5073199;28;20056;-86
2021/03/02 10:03:06;;;;;;;18.58;12.25;;;;;;;11.05;58.43;101434.56;5076273;28;20464;-86
2021/03/02 10:06:00;;;;;;;21.23;12.18;;;;;;;11.13;58.86;101443.09;5075958;28;20048;-86
2021/03/02 10:08:33;;;;;;;19.38;12.00;;;;;;;11.23;58.79;101441.03;5074552;28;20044;-86
2021/03/02 10:11:10;;;;;;;17.25;11.73;;;;;;;11.31;58.77;101436.38;5076116;28;20506;-86
2021/03/02 10:13:39;;;;;;;19.10;11.98;;;;;;;11.41;58.74;101433.41;5071613;28;20052;-86
2021/03/02 10:16:30;;;;;;;22.00;13.10;;;;;;;11.48;58.54;101437.59;5071643;28;20045;-86
2021/03/02 10:19:27;;;;;;;18.25;11.65;;;;;;;11.59;58.43;101430.16;5068430;28;20055;-86
2021/03/02 10:21:56;;;;;;;22.88;12.05;;;;;;;11.72;58.42;101432.38;5022642;28;20099;-86
2021/03/02 10:24:27;;;;;;;17.55;12.05;;;;;;;11.82;58.47;101433.75;5033310;28;20056;-86
2021/03/02 10:27:08;;;;;;;19.20;12.70;;;;;;;11.92;58.27;101433.47;5035912;28;20107;-86
2021/03/02 10:29:34;;;;;;;18.30;12.23;;;;;;;12.05;58.34;101431.22;5034654;28;20061;-86
2021/03/02 10:32:02;;;;;;;20.65;12.43;;;;;;;12.17;58.31;101433.44;5035463;28;20045;-86
2021/03/02 10:34:33;;;;;;;17.23;11.45;;;;;;;12.28;58.14;101434.81;5049903;28;20068;-87
2021/03/02 10:37:03;;;;;;;17.30;11.07;;;;;;;12.38;57.92;101423.84;5057652;28;20143;-86
2021/03/02 10:39:29;;;;;;;18.52;12.30;;;;;;;12.51;57.70;101426.91;5054387;28;20071;-87
2021/03/02 10:41:58;;;;;;;17.88;12.00;;;;;;;12.62;58.12;101429.13;5056748;28;20076;-85
2021/03/02 10:44:24;;;;;;;15.85;11.70;;;;;;;12.74;57.48;101429.56;5073997;28;20048;-86
2021/03/02 10:46:50;;;;;;;17.02;11.07;;;;;;;12.87;57.56;101427.31;5074374;28;20413;-86
2021/03/02 10:49:16;;;;;;;18.02;11.80;;;;;;;12.97;56.99;101428.66;5075537;28;20460;-86
2021/03/02 10:51:43;;;;;;;19.65;11.63;;;;;;;13.09;57.12;101423.81;5074249;28;20063;-87
2021/03/02 10:54:10;;;;;;;18.17;11.52;;;;;;;13.20;56.64;101426.84;5073497;28;20490;-86
2021/03/02 10:56:36;;;;;;;17.10;11.30;;;;;;;13.31;56.69;101429.09;5073170;28;20105;-86
2021/03/02 10:59:03;;;;;;;17.13;11.88;;;;;;;13.40;56.57;101426.03;5074055;28;20100;-86
2021/03/02 11:01:29;;;;;;;16.80;11.57;;;;;;;13.51;56.65;101424.75;5073725;28;20491;-86
2021/03/02 11:03:55;;;;;;;18.45;11.30;;;;;;;13.63;56.55;101423.34;5073890;28;20052;-86
2021/03/02 11:06:26;;;;;;;18.23;11.75;;;;;;;13.75;55.97;101424.63;5073350;28;20441;-86
2021/03/02 11:09:02;;;;;;;16.58;11.43;;;;;;;13.89;55.85;101418.72;5075607;28;20045;-86
2021/03/02 11:11:28;;;;;;;16.40;10.27;;;;;;;13.99;55.95;101422.69;5074929;28;20083;-86
2021/03/02 11:13:55;;;;;;;19.80;11.35;;;;;;;14.13;55.29;101415.91;5073545;28;20052;-86
2021/03/02 11:16:22;;;;;;;16.20;10.93;;;;;;;14.23;55.01;101403.97;5073372;28;20055;-86
2021/03/02 11:18:52;;;;;;;16.60;9.93;;;;;;;14.35;55.08;101401.69;5067110;28;20091;-87
2021/03/02 11:21:18;;;;;;;15.23;10.98;;;;;;;14.45;55.12;101408.25;5053361;28;20140;-87
2021/03/02 11:23:44;;;;;;;16.02;10.82;;;;;;;14.56;54.60;101398.03;5053194;28;20052;-86
2021/03/02 11:26:11;;;;;;;15.30;10.93;;;;;;;14.69;54.86;101390.31;5053192;28;20495;-88
2021/03/02 11:28:37;;;;;;;16.88;11.30;;;;;;;14.83;54.77;101387.03;5053437;28;20053;-86
2021/03/02 11:31:04;;;;;;;17.30;10.55;;;;;;;15.01;54.66;101383.56;5053429;28;20142;-87